Time;durP1;ratioP1;P1;durP2;ratioP2;P2;SDS_P1;SDS_P2;PMS_P1;PMS_P2;Temp;Humidity;BMP_temperature;BMP_pressure;BME280_temperature;BME280_humidity;BME280_pressure;Samples;Min_cycle;Max_cycle;Signal;HPM_P1;HPM_P2
2022/06/25 00:01:18;;;;;;;8.03;2.60;;;;;;;;;;5037292;28;20171;-42
2022/06/25 00:03:45;;;;;;;12.63;3.00;;;;;;;;;;5036989;28;20631;-42
2022/06/25 00:06:11;;;;;;;12.53;2.70;;;;;;;;;;5043980;28;20864;-43
2022/06/25 00:08:38;;;;;;;10.27;2.67;;;;;;;;;;5039752;28;20621;-42
2022/06/25 00:11:05;;;;;;;10.53;2.67;;;;;;;;;;5038015;28;20171;-42
2022/06/25 00:13:31;;;;;;;12.13;2.80;;;;;;;;;;5038167;28;20455;-42
2022/06/25 00:15:57;;;;;;;6.60;2.30;;;;;;;;;;5043324;28;20191;-42
2022/06/25 00:18:23;;;;;;;8.80;2.63;;;;;;;;;;5045643;28;21368;-40
2022/06/25 00:20:50;;;;;;;6.50;2.40;;;;;;;;;;5040818;28;20720;-40
2022/06/25 00:23:16;;;;;;;7.30;2.47;;;;;;;;;;5041069;28;20167;-41
2022/06/25 00:25:42;;;;;;;11.60;2.70;;;;;;;;;;5041051;28;20601;-42
2022/06/25 00:28:08;;;;;;;11.77;2.80;;;;;;;;;;5039898;28;20159;-42
2022/06/25 00:30:35;;;;;;;9.97;2.50;;;;;;;;;;5038988;28;20971;-42
2022/06/25 00:33:01;;;;;;;9.10;2.63;;;;;;;;;;5036290;28;20881;-42
2022/06/25 00:35:27;;;;;;;6.97;2.17;;;;;;;;;;5037434;28;20217;-42
2022/06/25 00:37:53;;;;;;;9.37;2.37;;;;;;;;;;5039529;28;20159;-42
2022/06/25 00:40:19;;;;;;;8.77;2.60;;;;;;;;;;5042402;28;20227;-42
2022/06/25 00:42:46;;;;;;;10.07;2.73;;;;;;;;;;5038523;28;20188;-42
2022/06/25 00:45:12;;;;;;;9.33;2.90;;;;;;;;;;5037115;28;20182;-42
2022/06/25 00:47:39;;;;;;;10.77;2.83;;;;;;;;;;5038729;28;20179;-42
2022/06/25 00:50:08;;;;;;;9.43;2.87;;;;;;;;;;5036878;28;20202;-42
2022/06/25 00:52:34;;;;;;;9.23;2.43;;;;;;;;;;5039162;28;20185;-42
2022/06/25 00:55:10;;;;;;;6.83;2.40;;;;;;;;;;5039972;28;20185;-42
2022/06/25 00:57:38;;;;;;;8.63;2.47;;;;;;;;;;5038762;28;20429;-42
2022/06/25 01:00:06;;;;;;;7.63;2.40;;;;;;;;;;5035794;28;20191;-42
2022/06/25 01:02:32;;;;;;;11.00;3.00;;;;;;;;;;5039519;28;20454;-42
2022/06/25 01:04:58;;;;;;;9.80;2.67;;;;;;;;;;5036854;28;20561;-42
2022/06/25 01:07:25;;;;;;;9.03;2.67;;;;;;;;;;5034995;28;20171;-42
2022/06/25 01:09:51;;;;;;;9.13;2.80;;;;;;;;;;5038349;28;20175;-43
2022/06/25 01:12:17;;;;;;;8.23;2.60;;;;;;;;;;5039182;28;20174;-43
2022/06/25 01:14:44;;;;;;;9.40;2.93;;;;;;;;;;5039208;28;20186;-41
2022/06/25 01:17:10;;;;;;;11.97;2.57;;;;;;;;;;5037083;28;20577;-42
2022/06/25 01:19:37;;;;;;;11.60;2.60;;;;;;;;;;5042246;28;20635;-42
2022/06/25 01:22:04;;;;;;;9.43;3.00;;;;;;;;;;5037688;28;20795;-42
2022/06/25 01:24:31;;;;;;;9.77;2.93;;;;;;;;;;5037967;28;20506;-42
2022/06/25 01:26:57;;;;;;;10.40;2.80;;;;;;;;;;5036791;28;21094;-41
2022/06/25 01:29:24;;;;;;;7.57;2.83;;;;;;;;;;5042077;28;20561;-42
2022/06/25 01:31:51;;;;;;;10.37;3.00;;;;;;;;;;5039141;28;20290;-42
2022/06/25 01:34:17;;;;;;;10.87;2.77;;;;;;;;;;5037142;28;20216;-42
2022/06/25 01:36:44;;;;;;;10.73;3.30;;;;;;;;;;5036014;28;20596;-42
2022/06/25 01:39:10;;;;;;;8.97;2.67;;;;;;;;;;5038786;28;20821;-43
2022/06/25 01:41:36;;;;;;;10.53;3.17;;;;;;;;;;5039074;28;20261;-42
2022/06/25 01:44:02;;;;;;;9.17;2.80;;;;;;;;;;5035895;28;20163;-42
2022/06/25 01:46:28;;;;;;;11.63;3.37;;;;;;;;;;5038510;28;20174;-42
2022/06/25 01:48:54;;;;;;;9.17;2.87;;;;;;;;;;5035052;28;20741;-42
2022/06/25 01:51:20;;;;;;;7.90;2.90;;;;;;;;;;5039212;28;20274;-41
2022/06/25 01:53:47;;;;;;;9.83;2.93;;;;;;;;;;5042473;28;20191;-42
2022/06/25 01:56:13;;;;;;;8.30;2.87;;;;;;;;;;5037349;28;20595;-42
2022/06/25 01:58:39;;;;;;;8.17;2.67;;;;;;;;;;5034153;28;20191;-42
2022/06/25 02:01:05;;;;;;;6.90;2.50;;;;;;;;;;5039129;28;20368;-42
2022/06/25 02:03:32;;;;;;;7.83;2.80;;;;;;;;;;5036596;28;20245;-42
2022/06/25 02:05:58;;;;;;;9.77;2.73;;;;;;;;;;5035914;28;20798;-42
2022/06/25 02:08:35;;;;;;;14.07;3.33;;;;;;;;;;5036289;28;20163;-42
2022/06/25 02:11:02;;;;;;;8.67;2.67;;;;;;;;;;5041695;28;20527;-42
2022/06/25 02:13:28;;;;;;;8.97;2.87;;;;;;;;;;5037296;28;20625;-42
2022/06/25 02:15:55;;;;;;;11.43;3.10;;;;;;;;;;5036259;28;20675;-42
2022/06/25 02:18:21;;;;;;;11.50;2.80;;;;;;;;;;5037973;28;20187;-42
2022/06/25 02:20:48;;;;;;;7.67;2.67;;;;;;;;;;5036129;28;20206;-42
2022/06/25 02:23:15;;;;;;;6.13;2.60;;;;;;;;;;5034540;28;20731;-42
2022/06/25 02:25:42;;;;;;;9.97;3.37;;;;;;;;;;5038217;28;20171;-42
2022/06/25 02:28:08;;;;;;;10.03;2.63;;;;;;;;;;5036709;28;20474;-41
2022/06/25 02:30:34;;;;;;;7.83;2.80;;;;;;;;;;5032824;28;20714;-42
2022/06/25 02:33:00;;;;;;;8.00;2.70;;;;;;;;;;5034782;28;20640;-42
2022/06/25 02:35:26;;;;;;;10.47;3.00;;;;;;;;;;5039875;28;20595;-42
2022/06/25 02:37:53;;;;;;;9.40;3.10;;;;;;;;;;5039872;28;20178;-42
2022/06/25 02:40:19;;;;;;;11.97;3.40;;;;;;;;;;5042888;28;20654;-42
2022/06/25 02:42:45;;;;;;;14.40;3.43;;;;;;;;;;5039800;28;20473;-42
2022/06/25 02:45:11;;;;;;;12.43;3.47;;;;;;;;;;5044454;28;20179;-42
2022/06/25 02:47:38;;;;;;;10.57;3.33;;;;;;;;;;5038724;28;20171;-42
2022/06/25 02:50:05;;;;;;;8.57;3.40;;;;;;;;;;5041793;28;20879;-43
2022/06/25 02:52:31;;;;;;;12.73;3.80;;;;;;;;;;5042949;28;20579;-41
2022/06/25 02:54:57;;;;;;;11.87;3.43;;;;;;;;;;5037667;28;20179;-42
2022/06/25 03:00:09;;;;;;;13.80;3.80;;;;;;;;;;5041082;28;20206;-42
2022/06/25 03:02:35;;;;;;;17.07;4.07;;;;;;;;;;5038585;28;20648;-42
2022/06/25 03:05:02;;;;;;;7.80;3.10;;;;;;;;;;5039064;28;20536;-42
2022/06/25 03:07:29;;;;;;;8.97;3.23;;;;;;;;;;5037545;28;20171;-42
2022/06/25 03:09:55;;;;;;;10.37;3.50;;;;;;;;;;5040913;28;20269;-42
2022/06/25 03:12:21;;;;;;;9.13;3.77;;;;;;;;;;5039141;28;20614;-41
2022/06/25 03:14:47;;;;;;;13.67;3.77;;;;;;;;;;5041445;28;20190;-42
2022/06/25 03:17:13;;;;;;;11.07;3.43;;;;;;;;;;5041112;28;20186;-42
2022/06/25 03:19:39;;;;;;;11.90;3.83;;;;;;;;;;5038676;28;20186;-42
2022/06/25 03:22:05;;;;;;;10.57;3.43;;;;;;;;;;5034073;28;20336;-42
2022/06/25 03:24:31;;;;;;;13.77;4.00;;;;;;;;;;5041715;28;20655;-42
2022/06/25 03:26:57;;;;;;;14.47;4.07;;;;;;;;;;5038980;28;20198;-42
2022/06/25 03:29:24;;;;;;;8.60;3.70;;;;;;;;;;5033932;28;20216;-42
2022/06/25 03:31:50;;;;;;;9.53;3.27;;;;;;;;;;5043770;28;20743;-42
2022/06/25 03:34:16;;;;;;;7.50;3.20;;;;;;;;;;5038356;28;20483;-42
2022/06/25 03:36:42;;;;;;;10.50;3.37;;;;;;;;;;5035981;28;20422;-41
2022/06/25 03:39:08;;;;;;;12.90;3.30;;;;;;;;;;5035549;28;20978;-42
2022/06/25 03:41:37;;;;;;;16.17;4.73;;;;;;;;;;5040049;28;20576;-42
2022/06/25 03:44:08;;;;;;;13.37;4.23;;;;;;;;;;5033642;28;20179;-42
2022/06/25 03:46:34;;;;;;;10.07;4.17;;;;;;;;;;5037885;28;20171;-42
2022/06/25 03:49:01;;;;;;;14.00;4.97;;;;;;;;;;5037870;28;20591;-42
2022/06/25 03:51:27;;;;;;;10.87;4.03;;;;;;;;;;5039492;28;20576;-42
2022/06/25 03:53:54;;;;;;;13.33;4.50;;;;;;;;;;5038567;28;20167;-42
2022/06/25 03:56:20;;;;;;;16.60;4.57;;;;;;;;;;5043603;28;20196;-42
2022/06/25 03:58:46;;;;;;;19.33;5.07;;;;;;;;;;5040059;28;20222;-42
2022/06/25 04:01:13;;;;;;;15.27;4.20;;;;;;;;;;5037010;28;20541;-42
2022/06/25 04:03:39;;;;;;;11.97;4.10;;;;;;;;;;5036971;28;20700;-42
2022/06/25 04:06:06;;;;;;;15.77;4.27;;;;;;;;;;5041646;28;20758;-41
2022/06/25 04:08:32;;;;;;;12.10;4.20;;;;;;;;;;5038231;28;20198;-41
2022/06/25 04:10:58;;;;;;;12.77;4.33;;;;;;;;;;5039500;28;20599;-42
2022/06/25 04:13:24;;;;;;;15.13;4.37;;;;;;;;;;5037950;28;20642;-42
2022/06/25 04:15:50;;;;;;;9.03;3.10;;;;;;;;;;5041320;28;20566;-42
2022/06/25 04:18:16;;;;;;;14.23;4.47;;;;;;;;;;5038312;28;20459;-42
2022/06/25 04:20:42;;;;;;;11.67;4.20;;;;;;;;;;5051248;27;20172;-41
2022/06/25 04:23:08;;;;;;;23.13;5.60;;;;;;;;;;5041791;28;20220;-42
2022/06/25 04:25:34;;;;;;;14.37;4.90;;;;;;;;;;5041191;28;20711;-42
2022/06/25 04:30:45;;;;;;;16.47;4.67;;;;;;;;;;5036854;28;20642;-40
2022/06/25 04:33:11;;;;;;;11.70;5.13;;;;;;;;;;5035461;28;20844;-42
2022/06/25 04:35:37;;;;;;;18.77;5.43;;;;;;;;;;5036991;28;21084;-42
2022/06/25 04:38:04;;;;;;;17.57;5.73;;;;;;;;;;5039950;28;20179;-42
2022/06/25 04:40:30;;;;;;;14.20;5.50;;;;;;;;;;5042310;28;20205;-42
2022/06/25 04:42:56;;;;;;;17.43;6.30;;;;;;;;;;5039041;28;20175;-42
2022/06/25 04:45:22;;;;;;;15.83;5.97;;;;;;;;;;5036540;28;20273;-42
2022/06/25 04:47:48;;;;;;;18.50;6.27;;;;;;;;;;5037731;28;20188;-41
2022/06/25 04:50:14;;;;;;;17.50;5.70;;;;;;;;;;5037025;28;20604;-41
2022/06/25 04:52:40;;;;;;;14.10;5.30;;;;;;;;;;5037093;28;20298;-40
2022/06/25 04:55:06;;;;;;;19.00;6.40;;;;;;;;;;5039715;28;20687;-41
2022/06/25 04:57:32;;;;;;;16.43;5.90;;;;;;;;;;5039343;28;21056;-42
2022/06/25 04:59:58;;;;;;;15.17;6.13;;;;;;;;;;5038411;28;20603;-41
2022/06/25 05:02:24;;;;;;;11.47;5.10;;;;;;;;;;5039518;28;20197;-42
2022/06/25 05:04:51;;;;;;;11.00;5.13;;;;;;;;;;5034308;28;20170;-42
2022/06/25 05:07:17;;;;;;;11.80;5.27;;;;;;;;;;5036438;28;20166;-42
2022/06/25 05:09:43;;;;;;;15.77;5.77;;;;;;;;;;5039295;28;20341;-42
2022/06/25 05:12:09;;;;;;;13.53;5.10;;;;;;;;;;5035949;28;20587;-42
2022/06/25 05:14:35;;;;;;;18.30;6.77;;;;;;;;;;5038251;28;20187;-41
2022/06/25 05:17:01;;;;;;;18.33;6.80;;;;;;;;;;5039470;28;20567;-42
2022/06/25 05:19:27;;;;;;;17.43;6.43;;;;;;;;;;5038125;28;20558;-42
2022/06/25 05:21:53;;;;;;;13.97;6.33;;;;;;;;;;5024459;28;20928;-42
2022/06/25 05:24:19;;;;;;;16.90;6.70;;;;;;;;;;5037550;28;20800;-42
2022/06/25 05:26:45;;;;;;;19.07;6.30;;;;;;;;;;5037914;28;20483;-42
2022/06/25 05:29:11;;;;;;;16.13;6.30;;;;;;;;;;5035657;28;20548;-42
2022/06/25 05:31:38;;;;;;;10.53;5.30;;;;;;;;;;5034365;28;20635;-42
2022/06/25 05:34:04;;;;;;;11.80;5.17;;;;;;;;;;5049850;28;20745;-42
2022/06/25 05:36:30;;;;;;;13.57;4.90;;;;;;;;;;5033002;28;20239;-42
2022/06/25 05:38:56;;;;;;;13.70;5.17;;;;;;;;;;5034090;28;20616;-42
2022/06/25 05:41:22;;;;;;;10.47;4.67;;;;;;;;;;5040322;28;20289;-42
2022/06/25 05:43:48;;;;;;;9.67;3.93;;;;;;;;;;5036430;28;20178;-42
2022/06/25 05:46:14;;;;;;;12.93;4.43;;;;;;;;;;5033281;28;20280;-42
2022/06/25 05:48:40;;;;;;;11.37;4.80;;;;;;;;;;5036370;28;20194;-42
2022/06/25 05:51:06;;;;;;;10.40;4.67;;;;;;;;;;5038846;28;20507;-42
2022/06/25 05:53:32;;;;;;;13.83;5.10;;;;;;;;;;5037037;28;20310;-42
2022/06/25 05:55:59;;;;;;;13.93;4.50;;;;;;;;;;5036536;28;20256;-41
2022/06/25 05:58:25;;;;;;;14.33;4.53;;;;;;;;;;5039426;28;20213;-42
2022/06/25 06:00:51;;;;;;;8.07;3.97;;;;;;;;;;5036686;28;20174;-42
2022/06/25 06:03:17;;;;;;;11.27;4.03;;;;;;;;;;5035644;28;20289;-42
2022/06/25 06:05:43;;;;;;;11.07;3.93;;;;;;;;;;5034948;28;20553;-42
2022/06/25 06:08:09;;;;;;;8.20;3.70;;;;;;;;;;5031776;28;20227;-42
2022/06/25 06:10:35;;;;;;;10.03;3.90;;;;;;;;;;5040281;28;20175;-42
2022/06/25 06:13:01;;;;;;;11.03;3.20;;;;;;;;;;5039028;28;20942;-43
2022/06/25 06:15:28;;;;;;;7.47;3.13;;;;;;;;;;5038484;28;20239;-42
2022/06/25 06:17:54;;;;;;;13.53;3.97;;;;;;;;;;5038519;28;20185;-42
2022/06/25 06:20:20;;;;;;;6.90;3.40;;;;;;;;;;5041772;28;20835;-42
2022/06/25 06:22:46;;;;;;;8.90;3.23;;;;;;;;;;5041138;28;20232;-43
2022/06/25 06:25:12;;;;;;;8.93;2.97;;;;;;;;;;5041379;28;20277;-43
2022/06/25 06:27:38;;;;;;;11.77;3.67;;;;;;;;;;5044368;28;20181;-43
2022/06/25 06:30:05;;;;;;;11.63;3.53;;;;;;;;;;5040108;28;20902;-43
2022/06/25 06:32:31;;;;;;;7.13;3.43;;;;;;;;;;5053228;28;20645;-43
2022/06/25 06:34:58;;;;;;;14.70;3.77;;;;;;;;;;5047219;28;20228;-42
2022/06/25 06:37:24;;;;;;;10.00;3.53;;;;;;;;;;5045591;28;20522;-42
2022/06/25 06:39:50;;;;;;;16.30;3.83;;;;;;;;;;5043849;28;20205;-43
2022/06/25 06:42:16;;;;;;;8.97;3.00;;;;;;;;;;5047777;28;20597;-42
2022/06/25 06:44:42;;;;;;;15.87;3.73;;;;;;;;;;5044913;28;20171;-43
2022/06/25 06:47:08;;;;;;;14.20;3.77;;;;;;;;;;5045956;28;20288;-43
2022/06/25 06:49:35;;;;;;;10.23;3.47;;;;;;;;;;5049613;28;20262;-43
2022/06/25 06:52:01;;;;;;;12.37;3.77;;;;;;;;;;5047067;28;20171;-43
2022/06/25 06:54:27;;;;;;;10.43;3.70;;;;;;;;;;5049416;28;20593;-42
2022/06/25 06:56:55;;;;;;;10.13;3.63;;;;;;;;;;5045546;28;20229;-43
2022/06/25 06:59:21;;;;;;;9.07;3.83;;;;;;;;;;5042227;28;20198;-43
2022/06/25 07:01:47;;;;;;;6.53;3.73;;;;;;;;;;5033803;28;20319;-43
2022/06/25 07:04:13;;;;;;;8.33;2.83;;;;;;;;;;5047897;28;20179;-43
2022/06/25 07:06:39;;;;;;;10.77;3.50;;;;;;;;;;5049500;28;20609;-43
2022/06/25 07:09:06;;;;;;;7.87;2.90;;;;;;;;;;5054099;28;20247;-43
2022/06/25 07:11:32;;;;;;;9.53;3.00;;;;;;;;;;5045699;28;20217;-43
2022/06/25 07:13:59;;;;;;;8.07;3.40;;;;;;;;;;5043426;28;20435;-43
2022/06/25 07:16:25;;;;;;;6.73;2.60;;;;;;;;;;5053871;28;20267;-43
2022/06/25 07:18:52;;;;;;;10.80;3.07;;;;;;;;;;5042815;28;20238;-43
2022/06/25 07:21:18;;;;;;;10.80;3.27;;;;;;;;;;5047277;28;20187;-42
2022/06/25 07:23:44;;;;;;;13.33;3.30;;;;;;;;;;5050270;28;20548;-43
2022/06/25 07:26:10;;;;;;;7.60;3.30;;;;;;;;;;5045012;28;20445;-43
2022/06/25 07:28:36;;;;;;;8.33;3.10;;;;;;;;;;5045848;28;20206;-43
2022/06/25 07:31:02;;;;;;;13.43;3.77;;;;;;;;;;5045305;28;20168;-43
2022/06/25 07:33:31;;;;;;;7.70;3.20;;;;;;;;;;5039768;28;20179;-43
2022/06/25 07:35:58;;;;;;;8.10;2.87;;;;;;;;;;5043785;28;20190;-43
2022/06/25 07:38:24;;;;;;;10.70;3.50;;;;;;;;;;5045303;28;20946;-43
2022/06/25 07:40:51;;;;;;;10.60;4.00;;;;;;;;;;5046958;28;20285;-43
2022/06/25 07:43:17;;;;;;;10.73;3.50;;;;;;;;;;5050707;28;20170;-43
2022/06/25 07:45:43;;;;;;;9.80;3.53;;;;;;;;;;5056073;28;20258;-43
2022/06/25 07:48:09;;;;;;;9.10;3.53;;;;;;;;;;5050286;28;20194;-43
2022/06/25 07:53:20;;;;;;;7.70;3.60;;;;;;;;;;5048758;28;20296;-43
2022/06/25 07:55:46;;;;;;;9.40;3.33;;;;;;;;;;5046952;28;20292;-43
2022/06/25 07:58:12;;;;;;;7.70;3.23;;;;;;;;;;5045916;28;20521;-43
2022/06/25 08:00:39;;;;;;;9.93;3.20;;;;;;;;;;5046333;28;20283;-43
2022/06/25 08:03:05;;;;;;;8.23;2.90;;;;;;;;;;5043958;28;20255;-43
2022/06/25 08:05:33;;;;;;;8.47;2.63;;;;;;;;;;5049054;28;20485;-43
2022/06/25 08:07:59;;;;;;;9.43;3.30;;;;;;;;;;5050035;28;20519;-43
2022/06/25 08:10:26;;;;;;;6.90;2.67;;;;;;;;;;5050585;28;20252;-43
2022/06/25 08:12:52;;;;;;;8.30;3.23;;;;;;;;;;5051751;28;20175;-43
2022/06/25 08:15:19;;;;;;;8.37;3.00;;;;;;;;;;5053506;28;20429;-44
2022/06/25 08:17:46;;;;;;;6.43;2.87;;;;;;;;;;5053871;28;20196;-43
2022/06/25 08:20:12;;;;;;;7.80;2.83;;;;;;;;;;5053444;28;20484;-43
2022/06/25 08:22:38;;;;;;;7.17;2.90;;;;;;;;;;5052178;28;20417;-43
2022/06/25 08:25:07;;;;;;;8.07;2.73;;;;;;;;;;5048596;28;20544;-43
2022/06/25 08:27:33;;;;;;;10.27;3.10;;;;;;;;;;5051973;28;20182;-42
2022/06/25 08:29:59;;;;;;;10.40;3.27;;;;;;;;;;5066598;27;20244;-43
2022/06/25 08:32:25;;;;;;;9.43;3.37;;;;;;;;;;5048718;28;20769;-43
2022/06/25 08:34:51;;;;;;;7.83;3.07;;;;;;;;;;5054181;28;20209;-43
2022/06/25 08:37:18;;;;;;;8.30;3.00;;;;;;;;;;5048988;28;20171;-43
2022/06/25 08:39:44;;;;;;;8.60;3.13;;;;;;;;;;5043827;28;20519;-42
2022/06/25 08:42:10;;;;;;;6.87;2.70;;;;;;;;;;5049706;28;20402;-43
2022/06/25 08:44:36;;;;;;;6.57;2.83;;;;;;;;;;5048786;28;20373;-43
2022/06/25 08:47:02;;;;;;;12.40;3.20;;;;;;;;;;5046220;28;20740;-42
2022/06/25 08:49:32;;;;;;;9.73;3.10;;;;;;;;;;5043487;28;20186;-43
2022/06/25 08:52:01;;;;;;;9.03;3.57;;;;;;;;;;5052800;28;20297;-43
2022/06/25 08:54:27;;;;;;;7.10;3.00;;;;;;;;;;5046714;28;20549;-43
2022/06/25 08:56:55;;;;;;;7.60;2.87;;;;;;;;;;5048942;28;20191;-42
2022/06/25 08:59:21;;;;;;;9.60;2.90;;;;;;;;;;5049432;28;20439;-43
2022/06/25 09:01:47;;;;;;;9.20;2.87;;;;;;;;;;5053153;28;20786;-43
2022/06/25 09:04:13;;;;;;;6.80;2.80;;;;;;;;;;5050390;28;20480;-43
2022/06/25 09:06:40;;;;;;;7.67;3.13;;;;;;;;;;5051521;28;20175;-43
2022/06/25 09:09:06;;;;;;;9.27;3.33;;;;;;;;;;5053164;28;20194;-42
2022/06/25 09:11:32;;;;;;;8.57;3.20;;;;;;;;;;5054215;28;20298;-43
2022/06/25 09:14:25;;;;;;;9.57;3.13;;;;;;;;;;5050556;28;20706;-43
2022/06/25 09:16:57;;;;;;;12.77;3.37;;;;;;;;;;5050643;28;20202;-43
2022/06/25 09:19:34;;;;;;;8.73;2.90;;;;;;;;;;5055150;28;20203;-43
2022/06/25 09:22:03;;;;;;;6.93;3.10;;;;;;;;;;5051288;28;20595;-43
2022/06/25 09:24:39;;;;;;;8.27;2.90;;;;;;;;;;5047439;28;20267;-43
2022/06/25 09:27:06;;;;;;;7.43;2.90;;;;;;;;;;5051711;28;20357;-43
2022/06/25 09:29:43;;;;;;;12.13;3.40;;;;;;;;;;5053021;28;20188;-43
2022/06/25 09:32:09;;;;;;;10.07;3.20;;;;;;;;;;5048120;28;20610;-43
2022/06/25 09:34:36;;;;;;;9.37;3.17;;;;;;;;;;5050218;28;20186;-43
2022/06/25 09:37:22;;;;;;;9.97;3.00;;;;;;;;;;5048040;28;20653;-42
2022/06/25 09:39:49;;;;;;;9.03;3.33;;;;;;;;;;5053203;28;20653;-43
2022/06/25 09:42:21;;;;;;;7.37;2.60;;;;;;;;;;5049707;28;20591;-43
2022/06/25 09:44:48;;;;;;;11.13;3.00;;;;;;;;;;5047590;28;20584;-43
2022/06/25 09:47:14;;;;;;;7.53;2.90;;;;;;;;;;5051761;28;20768;-42
2022/06/25 09:49:40;;;;;;;9.13;3.10;;;;;;;;;;5052050;28;20175;-42
2022/06/25 09:52:07;;;;;;;7.27;2.70;;;;;;;;;;5049803;28;20489;-42
2022/06/25 09:54:33;;;;;;;6.67;2.47;;;;;;;;;;5051941;28;20375;-42
2022/06/25 09:57:02;;;;;;;5.83;2.70;;;;;;;;;;5054067;28;20356;-42
2022/06/25 09:59:30;;;;;;;5.43;2.47;;;;;;;;;;5052533;28;20206;-42
2022/06/25 10:01:58;;;;;;;8.83;2.70;;;;;;;;;;5047777;28;21025;-43
2022/06/25 10:04:27;;;;;;;6.13;2.60;;;;;;;;;;5052712;28;20274;-42
2022/06/25 10:06:54;;;;;;;7.90;2.60;;;;;;;;;;5049123;28;20177;-42
2022/06/25 10:09:21;;;;;;;6.53;2.57;;;;;;;;;;5049802;28;20218;-41
2022/06/25 10:11:48;;;;;;;6.37;2.43;;;;;;;;;;5052125;28;20286;-42
2022/06/25 10:14:14;;;;;;;6.80;2.40;;;;;;;;;;5048633;28;20675;-42
2022/06/25 10:16:41;;;;;;;7.43;2.70;;;;;;;;;;5045477;28;20217;-42
2022/06/25 10:19:09;;;;;;;8.10;2.73;;;;;;;;;;5051762;28;20238;-41
2022/06/25 10:21:35;;;;;;;7.60;2.73;;;;;;;;;;5054580;28;20187;-42
2022/06/25 10:24:04;;;;;;;8.97;2.60;;;;;;;;;;5051435;28;20214;-42
2022/06/25 10:26:31;;;;;;;33.60;3.60;;;;;;;;;;5052783;28;20175;-42
2022/06/25 10:28:57;;;;;;;7.80;2.70;;;;;;;;;;5047143;28;20265;-42
2022/06/25 10:31:23;;;;;;;8.10;2.57;;;;;;;;;;5049611;28;21056;-42
2022/06/25 10:33:57;;;;;;;8.73;2.47;;;;;;;;;;5047756;28;20179;-42
2022/06/25 10:36:43;;;;;;;6.23;2.40;;;;;;;;;;5049316;28;20711;-42
2022/06/25 10:39:28;;;;;;;9.50;3.30;;;;;;;;;;5046404;28;20198;-43
2022/06/25 10:45:02;;;;;;;8.30;2.50;;;;;;;;;;5053222;28;20947;-43
2022/06/25 10:47:57;;;;;;;11.20;2.70;;;;;;;;;;5047520;28;20276;-43
2022/06/25 10:50:23;;;;;;;8.57;2.80;;;;;;;;;;5039799;28;20902;-43
2022/06/25 10:53:07;;;;;;;4.37;2.43;;;;;;;;;;5050534;28;20173;-43
2022/06/25 10:55:34;;;;;;;6.20;2.60;;;;;;;;;;5053557;28;20226;-43
2022/06/25 10:58:13;;;;;;;5.73;2.10;;;;;;;;;;5052888;28;20182;-43
2022/06/25 11:01:01;;;;;;;7.13;2.37;;;;;;;;;;5051000;28;20278;-44
2022/06/25 11:03:30;;;;;;;9.63;2.53;;;;;;;;;;5054590;28;20197;-42
2022/06/25 11:06:00;;;;;;;7.87;2.17;;;;;;;;;;5050918;28;20178;-42
2022/06/25 11:08:36;;;;;;;6.23;2.37;;;;;;;;;;5053263;28;20175;-42
2022/06/25 11:11:03;;;;;;;5.23;2.23;;;;;;;;;;5052354;28;20909;-43
2022/06/25 11:13:29;;;;;;;7.70;2.43;;;;;;;;;;5053261;28;20187;-42
2022/06/25 11:15:56;;;;;;;8.90;2.80;;;;;;;;;;5049636;28;20194;-42
2022/06/25 11:18:22;;;;;;;5.10;1.73;;;;;;;;;;5054914;28;20186;-42
2022/06/25 11:20:48;;;;;;;7.13;2.47;;;;;;;;;;5057221;28;20945;-43
2022/06/25 11:23:14;;;;;;;6.87;2.67;;;;;;;;;;5056964;28;20167;-42
2022/06/25 11:28:52;;;;;;;5.23;2.37;;;;;;;;;;5059352;28;20186;-41
2022/06/25 11:31:22;;;;;;;6.70;2.33;;;;;;;;;;5055872;28;20262;-43
2022/06/25 11:33:49;;;;;;;5.37;2.50;;;;;;;;;;5055780;28;20958;-44
2022/06/25 11:36:15;;;;;;;8.37;2.63;;;;;;;;;;5056283;28;20218;-43
2022/06/25 11:38:42;;;;;;;7.13;2.50;;;;;;;;;;5054806;28;20183;-43
2022/06/25 11:41:18;;;;;;;6.53;2.70;;;;;;;;;;5050460;28;20606;-43
2022/06/25 11:43:45;;;;;;;5.27;2.87;;;;;;;;;;5049754;28;20253;-43
2022/06/25 11:46:11;;;;;;;7.30;2.30;;;;;;;;;;5049388;28;20210;-43
2022/06/25 11:48:37;;;;;;;5.43;2.37;;;;;;;;;;5042222;28;20183;-43
2022/06/25 11:51:03;;;;;;;7.50;2.40;;;;;;;;;;5042516;28;20227;-43
2022/06/25 11:53:30;;;;;;;4.80;2.00;;;;;;;;;;5049821;28;20183;-43
2022/06/25 11:55:59;;;;;;;8.33;2.50;;;;;;;;;;5054054;28;20740;-43
2022/06/25 11:58:26;;;;;;;9.37;2.60;;;;;;;;;;5050237;28;20965;-43
2022/06/25 12:00:56;;;;;;;7.50;2.20;;;;;;;;;;5054768;28;20792;-43
2022/06/25 12:03:23;;;;;;;7.57;2.40;;;;;;;;;;5057271;28;20618;-42
2022/06/25 12:05:49;;;;;;;6.83;2.10;;;;;;;;;;5053949;28;20179;-43
2022/06/25 12:08:16;;;;;;;5.03;2.00;;;;;;;;;;5050857;28;20712;-43
2022/06/25 12:10:42;;;;;;;4.83;2.10;;;;;;;;;;5050921;28;20601;-43
2022/06/25 12:13:09;;;;;;;5.20;2.33;;;;;;;;;;5052893;28;20487;-43
2022/06/25 12:15:35;;;;;;;7.20;2.27;;;;;;;;;;5052123;28;20198;-43
2022/06/25 12:18:05;;;;;;;5.00;2.07;;;;;;;;;;5055229;28;20636;-43
2022/06/25 12:20:31;;;;;;;8.60;2.10;;;;;;;;;;5051995;28;20200;-42
2022/06/25 12:22:57;;;;;;;4.70;2.03;;;;;;;;;;5052065;28;20969;-43
2022/06/25 12:25:25;;;;;;;4.00;1.87;;;;;;;;;;5051472;28;20747;-42
2022/06/25 12:27:51;;;;;;;6.30;2.17;;;;;;;;;;5054830;28;20420;-43
2022/06/25 12:30:24;;;;;;;6.30;2.30;;;;;;;;;;5053766;28;20422;-43
2022/06/25 12:32:52;;;;;;;4.57;2.00;;;;;;;;;;5051522;28;20591;-43
2022/06/25 12:35:23;;;;;;;6.13;2.20;;;;;;;;;;5052251;28;20188;-43
2022/06/25 12:38:18;;;;;;;5.50;2.33;;;;;;;;;;5055083;28;20203;-43
2022/06/25 12:40:45;;;;;;;6.70;2.33;;;;;;;;;;5040522;28;20223;-43
2022/06/25 12:43:12;;;;;;;4.30;2.00;;;;;;;;;;5053187;28;20188;-43
2022/06/25 12:45:38;;;;;;;6.30;1.87;;;;;;;;;;5052676;28;20492;-42
2022/06/25 12:48:05;;;;;;;5.47;2.00;;;;;;;;;;5053705;28;20728;-43
2022/06/25 12:50:33;;;;;;;7.90;2.40;;;;;;;;;;5048082;28;20519;-43
2022/06/25 12:53:06;;;;;;;3.87;1.70;;;;;;;;;;5054892;28;20200;-42
2022/06/25 12:55:32;;;;;;;6.63;2.07;;;;;;;;;;5051656;28;20722;-42
2022/06/25 12:58:03;;;;;;;6.13;2.00;;;;;;;;;;5052922;28;20292;-43
2022/06/25 13:00:29;;;;;;;5.80;2.07;;;;;;;;;;5051458;28;20309;-41
2022/06/25 13:02:56;;;;;;;6.13;1.80;;;;;;;;;;5052947;28;20190;-43
2022/06/25 13:05:22;;;;;;;4.40;2.10;;;;;;;;;;5050330;28;20185;-43
2022/06/25 13:07:48;;;;;;;5.03;2.00;;;;;;;;;;5056747;28;20182;-43
2022/06/25 13:10:15;;;;;;;3.70;1.70;;;;;;;;;;5053815;28;20188;-43
2022/06/25 13:12:42;;;;;;;4.10;1.40;;;;;;;;;;5050070;28;20178;-43
2022/06/25 13:15:09;;;;;;;5.57;2.00;;;;;;;;;;5050306;28;20209;-43
2022/06/25 13:17:35;;;;;;;4.90;1.90;;;;;;;;;;5044002;28;20496;-43
2022/06/25 13:20:01;;;;;;;6.87;1.90;;;;;;;;;;5049649;28;20225;-43
2022/06/25 13:22:28;;;;;;;4.60;2.07;;;;;;;;;;5050638;28;20183;-41
2022/06/25 13:24:54;;;;;;;5.07;2.00;;;;;;;;;;5049874;28;20190;-43
2022/06/25 13:27:20;;;;;;;7.27;2.17;;;;;;;;;;5053963;28;20178;-41
2022/06/25 13:29:46;;;;;;;6.87;1.80;;;;;;;;;;5050595;28;20183;-43
2022/06/25 13:32:19;;;;;;;3.97;1.70;;;;;;;;;;5052525;28;20433;-42
2022/06/25 13:34:45;;;;;;;5.80;1.97;;;;;;;;;;5040299;28;20405;-43
2022/06/25 13:37:12;;;;;;;6.70;2.17;;;;;;;;;;5045344;28;20183;-42
2022/06/25 13:39:38;;;;;;;4.90;1.67;;;;;;;;;;5043113;28;20218;-42
2022/06/25 13:42:04;;;;;;;3.90;1.70;;;;;;;;;;5048639;28;20590;-43
2022/06/25 13:44:31;;;;;;;5.27;1.83;;;;;;;;;;5049258;28;20170;-41
2022/06/25 13:46:57;;;;;;;5.83;2.17;;;;;;;;;;5048838;28;20174;-43
2022/06/25 13:49:23;;;;;;;5.57;1.90;;;;;;;;;;5050405;28;20811;-43
2022/06/25 13:51:51;;;;;;;5.60;1.67;;;;;;;;;;5051992;28;20179;-42
2022/06/25 13:54:17;;;;;;;6.60;1.90;;;;;;;;;;5036978;28;20535;-43
2022/06/25 13:56:43;;;;;;;4.97;1.80;;;;;;;;;;5040919;28;20182;-43
2022/06/25 13:59:10;;;;;;;5.00;2.17;;;;;;;;;;5042135;28;20279;-43
2022/06/25 14:01:36;;;;;;;5.03;1.83;;;;;;;;;;5040767;28;20696;-43
2022/06/25 14:04:02;;;;;;;4.67;1.87;;;;;;;;;;5048008;28;20244;-42
2022/06/25 14:06:29;;;;;;;5.20;1.70;;;;;;;;;;5046389;28;20265;-42
2022/06/25 14:08:57;;;;;;;3.07;1.67;;;;;;;;;;5052261;28;20175;-42
2022/06/25 14:11:23;;;;;;;6.27;1.77;;;;;;;;;;5050239;28;20270;-43
2022/06/25 14:13:50;;;;;;;3.13;1.70;;;;;;;;;;5049244;28;20445;-43
2022/06/25 14:16:16;;;;;;;3.67;1.60;;;;;;;;;;5050391;28;20202;-43
2022/06/25 14:18:42;;;;;;;4.43;1.97;;;;;;;;;;5051011;28;20183;-43
2022/06/25 14:21:08;;;;;;;8.80;2.43;;;;;;;;;;5050291;28;20211;-42
2022/06/25 14:23:34;;;;;;;5.80;1.73;;;;;;;;;;5053886;28;21593;-43
2022/06/25 14:26:00;;;;;;;4.43;1.80;;;;;;;;;;5046929;28;20194;-43
2022/06/25 14:28:27;;;;;;;5.90;1.70;;;;;;;;;;5047492;28;20256;-43
2022/06/25 14:30:53;;;;;;;4.97;1.83;;;;;;;;;;5053874;28;20982;-41
2022/06/25 14:33:19;;;;;;;6.60;1.77;;;;;;;;;;5047621;28;20179;-43
2022/06/25 14:44:01;;;;;;;5.13;1.73;;;;;;;;;;5052385;28;21407;-40
2022/06/25 14:46:28;;;;;;;3.17;1.40;;;;;;;;;;5057263;28;20541;-42
2022/06/25 14:48:54;;;;;;;3.53;1.47;;;;;;;;;;5052247;28;20197;-42
2022/06/25 14:51:20;;;;;;;3.13;1.70;;;;;;;;;;5053533;28;20171;-43
2022/06/25 14:53:46;;;;;;;3.60;1.60;;;;;;;;;;5052790;28;20179;-43
2022/06/25 14:56:12;;;;;;;6.77;1.60;;;;;;;;;;5060145;28;20323;-43
2022/06/25 14:58:38;;;;;;;2.77;1.40;;;;;;;;;;5046622;28;20198;-43
2022/06/25 15:01:06;;;;;;;4.37;1.50;;;;;;;;;;5054645;28;20201;-42